Time;durP1;ratioP1;P1;durP2;ratioP2;P2;SDS_P1;SDS_P2;PMS_P1;PMS_P2;Temp;Humidity;BMP_temperature;BMP_pressure;BME280_temperature;BME280_humidity;BME280_pressure;Samples;Min_cycle;Max_cycle;Signal;HPM_P1;HPM_P2
2023/04/09 00:01:08;;;;;;;16.43;15.37;;;8.50;99.90;;;;;;5082696;28;21078;-80
2023/04/09 00:03:37;;;;;;;15.97;14.77;;;8.50;99.90;;;;;;5082199;28;20489;-79
2023/04/09 00:06:06;;;;;;;14.63;13.73;;;8.60;99.90;;;;;;5085950;28;20499;-81
2023/04/09 00:08:34;;;;;;;17.10;15.80;;;8.50;99.90;;;;;;5082940;28;20485;-80
2023/04/09 00:11:03;;;;;;;16.50;15.40;;;8.50;1.00;;;;;;5082623;28;20451;-80
2023/04/09 00:13:31;;;;;;;16.53;15.23;;;8.50;1.00;;;;;;5088630;28;20477;-77
2023/04/09 00:16:08;;;;;;;17.30;16.20;;;8.50;1.00;;;;;;5083246;28;20496;-78
2023/04/09 00:18:36;;;;;;;16.73;15.43;;;8.50;1.00;;;;;;5081746;28;20452;-80
2023/04/09 00:21:07;;;;;;;16.80;15.60;;;8.50;1.00;;;;;;5084007;28;20469;-78
2023/04/09 00:23:35;;;;;;;16.53;15.43;;;8.50;1.00;;;;;;5084952;28;20575;-80
2023/04/09 00:26:03;;;;;;;16.13;15.03;;;8.50;1.00;;;;;;5090780;28;20451;-79
2023/04/09 00:28:31;;;;;;;17.00;15.80;;;8.50;1.00;;;;;;5090266;28;20453;-80
2023/04/09 00:31:00;;;;;;;16.67;15.47;;;8.50;1.00;;;;;;5088200;28;20461;-80
2023/04/09 00:33:30;;;;;;;17.10;15.90;;;8.50;1.00;;;;;;5093140;28;20463;-79
2023/04/09 00:35:58;;;;;;;17.03;15.80;;;8.50;1.00;;;;;;5091295;28;20451;-80
2023/04/09 00:38:26;;;;;;;17.47;16.07;;;8.60;1.00;;;;;;5086295;28;20454;-82
2023/04/09 00:40:54;;;;;;;17.20;16.00;;;8.60;31.70;;;;;;5085276;28;20484;-79
2023/04/09 00:43:22;;;;;;;17.67;16.30;;;8.60;1.00;;;;;;5081070;28;21021;-78
2023/04/09 00:45:50;;;;;;;17.23;16.03;;;8.60;1.00;;;;;;5080580;28;20553;-78
2023/04/09 00:48:19;;;;;;;19.10;17.70;;;8.60;1.00;;;;;;5083460;28;20449;-79
2023/04/09 00:50:48;;;;;;;16.33;15.23;;;8.60;1.00;;;;;;5080893;28;20473;-78
2023/04/09 00:53:17;;;;;;;17.80;16.40;;;8.50;1.00;;;;;;5078667;28;20513;-81
2023/04/09 00:55:45;;;;;;;17.90;16.67;;;8.50;1.00;;;;;;5085353;28;20460;-78
2023/04/09 00:58:14;;;;;;;18.30;17.00;;;8.50;1.00;;;;;;5082602;28;20448;-79
2023/04/09 01:00:42;;;;;;;17.67;16.43;;;8.50;1.00;;;;;;5084184;28;20548;-79
2023/04/09 01:03:10;;;;;;;17.57;16.40;;;8.40;1.00;;;;;;5083053;28;20572;-82
2023/04/09 01:05:47;;;;;;;16.83;15.67;;;8.50;1.00;;;;;;5083573;28;20486;-80
2023/04/09 01:08:31;;;;;;;16.87;15.67;;;8.50;1.00;;;;;;5079860;28;20942;-83
2023/04/09 01:11:08;;;;;;;18.03;16.83;;;8.50;56.00;;;;;;5080952;28;20448;-80
2023/04/09 01:13:42;;;;;;;16.67;15.50;;;8.50;1.00;;;;;;5085545;28;20476;-77
2023/04/09 01:16:14;;;;;;;17.33;16.13;;;8.50;48.90;;;;;;5085188;28;20459;-78
2023/04/09 01:18:49;;;;;;;16.17;14.93;;;8.60;9.80;;;;;;5082638;28;21295;-81
2023/04/09 01:21:20;;;;;;;17.60;16.27;;;8.60;14.60;;;;;;5081320;28;20525;-81
2023/04/09 01:23:59;;;;;;;19.27;17.70;;;8.50;1.00;;;;;;5086149;28;20504;-79
2023/04/09 01:26:41;;;;;;;19.33;17.93;;;8.50;46.30;;;;;;5083787;28;20456;-81
2023/04/09 01:29:11;;;;;;;18.43;16.90;;;8.50;99.90;;;;;;5084957;28;20529;-79
2023/04/09 01:31:42;;;;;;;18.00;16.60;;;8.50;67.80;;;;;;5082544;28;20517;-79
2023/04/09 01:34:11;;;;;;;18.07;16.77;;;8.50;99.90;;;;;;5086445;28;20460;-81
2023/04/09 01:36:41;;;;;;;18.30;17.00;;;8.50;99.90;;;;;;5084299;28;20461;-79
2023/04/09 01:39:10;;;;;;;17.40;16.20;;;8.50;99.90;;;;;;5086249;28;20553;-80
2023/04/09 01:41:39;;;;;;;17.23;15.83;;;8.50;98.80;;;;;;5084295;28;20492;-84
2023/04/09 01:44:09;;;;;;;18.30;16.90;;;8.50;47.00;;;;;;5082858;28;20571;-81
2023/04/09 01:46:40;;;;;;;16.90;15.60;;;8.50;99.90;;;;;;5083196;28;20457;-80
2023/04/09 01:49:09;;;;;;;19.00;17.50;;;8.50;99.90;;;;;;5082603;28;20640;-80
2023/04/09 01:51:38;;;;;;;18.30;17.00;;;8.50;99.90;;;;;;5084212;28;20547;-79
2023/04/09 01:54:06;;;;;;;18.07;16.70;;;8.50;99.90;;;;;;5082549;28;20488;-79
2023/04/09 01:56:41;;;;;;;18.50;17.03;;;8.60;99.90;;;;;;5081610;28;20464;-79
2023/04/09 01:59:10;;;;;;;18.53;17.30;;;8.60;99.90;;;;;;5080412;28;20464;-81
2023/04/09 02:01:45;;;;;;;17.93;16.73;;;8.60;1.00;;;;;;5080337;28;20955;-79
2023/04/09 02:04:19;;;;;;;17.93;16.67;;;8.50;99.90;;;;;;5085361;28;20477;-82
2023/04/09 02:06:57;;;;;;;19.03;17.67;;;8.50;99.90;;;;;;5082777;28;20998;-80
2023/04/09 02:09:29;;;;;;;17.93;16.53;;;8.60;99.90;;;;;;5077429;28;20477;-81
2023/04/09 02:12:01;;;;;;;17.40;16.30;;;8.60;99.90;;;;;;5083843;28;20445;-79
2023/04/09 02:14:31;;;;;;;17.80;16.57;;;8.50;99.90;;;;;;5081953;28;20469;-83
2023/04/09 02:17:01;;;;;;;18.13;16.83;;;8.50;99.90;;;;;;5085272;28;20481;-79
2023/04/09 02:19:39;;;;;;;16.83;15.70;;;8.50;99.90;;;;;;5085939;28;20472;-79
2023/04/09 02:22:07;;;;;;;18.63;17.23;;;8.40;1.00;;;;;;5084731;28;20570;-81
2023/04/09 02:24:36;;;;;;;16.80;15.70;;;8.40;1.00;;;;;;5082651;28;20571;-81
2023/04/09 02:27:04;;;;;;;17.73;16.40;;;8.50;1.00;;;;;;5084945;28;20440;-80
2023/04/09 02:29:33;;;;;;;17.90;16.60;;;8.50;1.00;;;;;;5084289;28;20481;-80
2023/04/09 02:32:02;;;;;;;19.00;17.60;;;8.40;1.00;;;;;;5081768;28;20472;-83
2023/04/09 02:34:31;;;;;;;18.20;16.90;;;8.40;1.00;;;;;;5082588;28;20472;-79
2023/04/09 02:36:59;;;;;;;16.93;15.77;;;8.40;1.00;;;;;;5085004;28;20479;-78
2023/04/09 02:39:27;;;;;;;17.10;15.90;;;8.30;1.00;;;;;;5083269;28;20547;-79
2023/04/09 02:41:56;;;;;;;17.80;16.40;;;8.30;99.90;;;;;;5081735;28;20470;-81
2023/04/09 02:44:25;;;;;;;17.10;16.00;;;8.40;37.80;;;;;;5083888;28;20472;-80
2023/04/09 02:46:53;;;;;;;17.70;16.20;;;8.40;1.00;;;;;;5086955;28;20542;-79
2023/04/09 02:49:22;;;;;;;17.20;16.20;;;8.40;1.00;;;;;;5080185;28;20467;-79
2023/04/09 02:51:50;;;;;;;17.00;15.80;;;8.30;42.10;;;;;;5082746;28;20560;-78
2023/04/09 02:54:18;;;;;;;19.00;17.60;;;8.30;30.90;;;;;;5080016;28;20550;-78
2023/04/09 02:56:46;;;;;;;18.30;16.87;;;8.30;26.00;;;;;;5086020;28;20487;-77
2023/04/09 02:59:15;;;;;;;17.23;16.03;;;8.30;99.90;;;;;;5084085;28;20561;-84
2023/04/09 03:01:43;;;;;;;18.57;17.27;;;8.30;99.90;;;;;;5081653;28;20873;-80
2023/04/09 03:04:11;;;;;;;17.60;16.37;;;8.30;99.90;;;;;;5081471;28;20476;-78
2023/04/09 03:06:41;;;;;;;17.70;16.50;;;8.30;99.90;;;;;;5084154;28;20463;-78
2023/04/09 03:09:09;;;;;;;19.80;18.17;;;8.30;99.90;;;;;;5085492;28;20469;-80
2023/04/09 03:11:37;;;;;;;18.93;17.57;;;8.20;99.90;;;;;;5087996;28;20449;-81
2023/04/09 03:14:05;;;;;;;17.80;16.60;;;8.20;99.90;;;;;;5088307;28;21278;-78
2023/04/09 03:16:33;;;;;;;19.07;17.67;;;8.20;99.90;;;;;;5088852;28;20510;-76
2023/04/09 03:19:01;;;;;;;18.43;17.13;;;8.20;1.00;;;;;;5079397;28;20467;-79
2023/04/09 03:21:30;;;;;;;16.30;15.20;;;8.30;99.90;;;;;;5087358;28;20491;-81
2023/04/09 03:24:01;;;;;;;17.30;16.00;;;8.20;99.90;;;;;;5083373;28;20488;-79
2023/04/09 03:26:34;;;;;;;18.40;17.10;;;8.20;99.90;;;;;;5090074;28;20452;-79
2023/04/09 03:29:03;;;;;;;19.30;17.70;;;8.30;99.90;;;;;;5083995;28;20562;-78
2023/04/09 03:31:31;;;;;;;18.17;16.80;;;8.20;99.90;;;;;;5081213;28;20996;-78
2023/04/09 03:33:59;;;;;;;18.50;17.27;;;8.20;99.90;;;;;;5088894;28;20879;-81
2023/04/09 03:36:27;;;;;;;17.50;16.30;;;8.20;99.90;;;;;;5087334;28;20460;-80
2023/04/09 03:38:55;;;;;;;17.53;16.43;;;8.20;99.90;;;;;;5085590;28;20451;-82
2023/04/09 03:41:26;;;;;;;17.80;16.60;;;8.20;99.90;;;;;;5085122;28;20456;-78
2023/04/09 03:43:54;;;;;;;19.30;17.90;;;8.20;99.90;;;;;;5083357;28;20556;-78
2023/04/09 03:46:22;;;;;;;18.23;16.73;;;8.20;58.20;;;;;;5088824;28;20472;-79
2023/04/09 03:48:50;;;;;;;17.57;16.23;;;8.10;56.40;;;;;;5088013;28;20541;-80
2023/04/09 03:51:19;;;;;;;18.70;17.20;;;8.10;99.90;;;;;;5085427;28;20457;-81
2023/04/09 03:53:47;;;;;;;17.90;16.60;;;8.10;74.60;;;;;;5084396;28;20533;-80
2023/04/09 03:56:15;;;;;;;18.43;17.20;;;8.10;99.90;;;;;;5087067;28;20456;-80
2023/04/09 03:58:44;;;;;;;18.30;16.90;;;8.00;99.90;;;;;;5080490;28;20464;-83
2023/04/09 04:01:12;;;;;;;18.73;17.17;;;8.00;99.90;;;;;;5083775;28;20573;-80
2023/04/09 04:03:41;;;;;;;18.87;17.67;;;8.00;99.90;;;;;;5087271;28;20491;-84
2023/04/09 04:06:09;;;;;;;18.27;17.00;;;8.10;99.90;;;;;;5080802;28;20443;-81
2023/04/09 04:08:37;;;;;;;19.23;17.87;;;8.00;99.90;;;;;;5085891;28;20457;-81
2023/04/09 04:11:05;;;;;;;17.47;16.27;;;8.00;99.90;;;;;;5087122;28;20452;-80
2023/04/09 04:13:33;;;;;;;19.13;17.73;;;8.00;99.90;;;;;;5087929;28;20474;-79
2023/04/09 04:16:07;;;;;;;19.63;17.87;;;8.10;99.90;;;;;;5088798;28;20535;-79
2023/04/09 04:18:35;;;;;;;19.40;17.90;;;8.10;99.90;;;;;;5078653;28;20466;-78
2023/04/09 04:21:04;;;;;;;18.80;17.37;;;8.10;99.90;;;;;;5087619;28;20458;-83
2023/04/09 04:23:33;;;;;;;19.53;18.13;;;8.10;99.90;;;;;;5078704;28;20857;-82
2023/04/09 04:26:02;;;;;;;18.80;17.17;;;8.00;99.90;;;;;;5088823;28;20453;-78
2023/04/09 04:28:30;;;;;;;19.47;17.87;;;8.00;1.00;;;;;;5089942;28;20530;-79
2023/04/09 04:30:58;;;;;;;17.77;16.50;;;8.00;1.00;;;;;;5086317;28;20482;-80
2023/04/09 04:33:27;;;;;;;19.23;17.60;;;8.10;1.00;;;;;;5089609;28;20638;-80
2023/04/09 04:36:05;;;;;;;17.93;16.63;;;8.10;99.90;;;;;;5083672;28;20498;-78
2023/04/09 04:38:33;;;;;;;18.67;17.30;;;8.00;1.00;;;;;;5090415;28;20521;-79
2023/04/09 04:41:01;;;;;;;18.00;16.80;;;8.00;99.90;;;;;;5085986;28;20877;-79
2023/04/09 04:43:29;;;;;;;18.40;17.10;;;8.00;1.00;;;;;;5089253;28;21181;-77
2023/04/09 04:45:58;;;;;;;18.27;16.97;;;8.00;1.00;;;;;;5086130;28;20452;-79
2023/04/09 04:48:29;;;;;;;18.50;17.10;;;8.00;1.00;;;;;;5083839;28;21067;-78
2023/04/09 04:50:59;;;;;;;18.47;17.17;;;8.00;1.00;;;;;;5087781;28;20986;-78
2023/04/09 04:53:28;;;;;;;19.00;17.60;;;8.00;1.00;;;;;;5090158;28;21002;-79
2023/04/09 04:55:56;;;;;;;19.80;18.40;;;8.00;1.00;;;;;;5089389;28;20458;-78
2023/04/09 04:58:25;;;;;;;19.63;18.33;;;8.00;1.00;;;;;;5083854;28;21001;-83
2023/04/09 05:00:53;;;;;;;19.47;17.97;;;7.90;1.00;;;;;;5087995;28;20589;-79
2023/04/09 05:03:21;;;;;;;18.27;17.07;;;7.90;1.00;;;;;;5087531;28;20547;-80
2023/04/09 05:05:51;;;;;;;18.10;16.90;;;8.00;44.60;;;;;;5091387;28;20457;-80
2023/04/09 05:08:20;;;;;;;17.77;16.37;;;8.00;99.90;;;;;;5087177;28;20996;-80
2023/04/09 05:10:48;;;;;;;17.90;16.60;;;8.10;99.90;;;;;;5080450;28;20529;-80
2023/04/09 05:13:16;;;;;;;17.90;16.73;;;8.00;99.90;;;;;;5085406;28;20469;-80
2023/04/09 05:15:44;;;;;;;19.00;17.60;;;7.90;99.90;;;;;;5086735;28;20440;-79
2023/04/09 05:18:12;;;;;;;19.60;18.20;;;7.90;99.90;;;;;;5086093;28;20527;-77
2023/04/09 05:20:40;;;;;;;20.90;19.20;;;7.80;99.90;;;;;;5087534;28;20509;-79
2023/04/09 05:23:11;;;;;;;20.07;18.40;;;7.90;99.90;;;;;;5088931;28;20488;-79
2023/04/09 05:25:39;;;;;;;19.90;18.50;;;7.90;99.90;;;;;;5081954;28;20462;-80
2023/04/09 05:28:10;;;;;;;19.70;18.27;;;7.90;99.90;;;;;;5090473;28;20445;-84
2023/04/09 05:30:38;;;;;;;20.07;18.67;;;8.00;99.90;;;;;;5095944;28;20448;-81
2023/04/09 05:33:06;;;;;;;19.20;17.90;;;8.00;99.90;;;;;;5093239;28;20476;-82
2023/04/09 05:35:38;;;;;;;19.83;18.43;;;8.00;1.00;;;;;;5101415;28;20444;-83
2023/04/09 05:38:06;;;;;;;20.67;19.03;;;8.10;1.00;;;;;;5094552;28;20540;-82
2023/04/09 05:40:35;;;;;;;19.30;18.00;;;8.10;1.00;;;;;;5090834;28;20445;-80
2023/04/09 05:43:04;;;;;;;19.27;17.77;;;8.20;99.90;;;;;;5091632;28;20479;-79
2023/04/09 05:45:32;;;;;;;19.33;17.93;;;8.20;99.90;;;;;;5088313;28;20453;-78
2023/04/09 05:48:00;;;;;;;21.43;19.93;;;8.10;99.90;;;;;;5078378;28;20448;-79
2023/04/09 05:50:28;;;;;;;20.77;19.17;;;8.10;99.90;;;;;;5087938;28;20439;-78
2023/04/09 05:52:56;;;;;;;21.60;20.10;;;8.20;1.00;;;;;;5086828;28;20470;-78
2023/04/09 05:55:25;;;;;;;22.20;20.53;;;8.30;99.90;;;;;;5086052;28;20453;-79
2023/04/09 05:57:54;;;;;;;22.43;20.63;;;8.30;99.90;;;;;;5083689;28;21049;-80
2023/04/09 06:00:22;;;;;;;22.13;20.33;;;8.30;99.90;;;;;;5081616;28;20445;-79
2023/04/09 06:02:51;;;;;;;20.90;19.30;;;8.40;99.90;;;;;;5074322;28;20476;-80
2023/04/09 06:05:19;;;;;;;20.63;19.10;;;8.40;99.90;;;;;;5084766;28;20460;-82
2023/04/09 06:07:47;;;;;;;21.63;20.03;;;8.40;99.90;;;;;;5083446;28;20455;-79
2023/04/09 06:10:15;;;;;;;20.47;19.13;;;8.50;99.90;;;;;;5077181;28;20460;-81
2023/04/09 06:12:43;;;;;;;21.20;19.50;;;8.50;99.90;;;;;;5082664;28;20449;-79
2023/04/09 06:15:13;;;;;;;21.67;20.00;;;8.50;1.00;;;;;;5081852;28;20550;-79
2023/04/09 06:17:41;;;;;;;22.47;20.67;;;8.60;1.00;;;;;;5084228;28;20511;-79
2023/04/09 06:20:10;;;;;;;23.40;21.70;;;8.70;97.20;;;;;;5082585;28;20452;-78
2023/04/09 06:22:38;;;;;;;22.67;21.00;;;9.30;1.00;;;;;;5078433;28;20457;-79
2023/04/09 06:25:07;;;;;;;22.13;20.70;;;9.60;39.00;;;;;;5080926;28;20510;-78
2023/04/09 06:27:35;;;;;;;22.37;20.73;;;9.90;1.00;;;;;;5076145;28;20453;-79
2023/04/09 06:30:04;;;;;;;22.40;20.70;;;10.00;99.90;;;;;;5077364;28;20457;-81
2023/04/09 06:32:33;;;;;;;21.93;20.23;;;10.20;99.90;;;;;;5079109;28;20449;-80
2023/04/09 06:35:18;;;;;;;22.20;20.43;;;10.30;99.90;;;;;;5084950;28;20617;-78
2023/04/09 06:37:46;;;;;;;21.23;19.60;;;10.50;53.70;;;;;;5084452;28;20461;-80
2023/04/09 06:40:14;;;;;;;22.50;20.87;;;10.60;1.00;;;;;;5082998;28;20460;-79
2023/04/09 06:42:43;;;;;;;21.30;19.70;;;10.70;1.00;;;;;;5083394;28;20437;-81
2023/04/09 06:45:11;;;;;;;21.40;19.83;;;10.90;1.00;;;;;;5083103;28;20481;-82
2023/04/09 06:47:41;;;;;;;19.83;18.40;;;10.90;1.00;;;;;;5084047;28;20453;-78
2023/04/09 06:50:09;;;;;;;21.80;20.10;;;11.10;1.00;;;;;;5081240;28;20460;-78
2023/04/09 06:52:37;;;;;;;21.77;19.97;;;11.20;99.90;;;;;;5084214;28;20449;-79
2023/04/09 06:55:06;;;;;;;21.73;19.93;;;11.20;99.90;;;;;;5084396;28;20457;-79
2023/04/09 06:57:34;;;;;;;20.03;18.57;;;11.30;99.90;;;;;;5083467;28;20501;-80
2023/04/09 07:00:03;;;;;;;20.27;18.90;;;11.40;99.90;;;;;;5070718;28;21077;-83
2023/04/09 07:02:31;;;;;;;20.27;18.73;;;11.50;99.90;;;;;;5083062;28;20557;-82
2023/04/09 07:05:01;;;;;;;20.83;19.33;;;11.50;99.90;;;;;;5083254;28;20477;-79
2023/04/09 07:07:30;;;;;;;20.17;18.77;;;11.60;99.90;;;;;;5082482;28;20454;-79
2023/04/09 07:09:58;;;;;;;18.67;17.37;;;11.70;99.90;;;;;;5082231;28;20454;-82
2023/04/09 07:12:27;;;;;;;21.40;19.80;;;11.80;99.90;;;;;;5088687;28;20461;-80
2023/04/09 07:14:58;;;;;;;18.77;17.33;;;11.80;99.90;;;;;;5088178;28;20475;-80
2023/04/09 07:17:26;;;;;;;18.63;17.20;;;11.70;99.90;;;;;;5084441;28;20466;-81
2023/04/09 07:19:54;;;;;;;17.77;16.57;;;11.50;99.90;;;;;;5087435;28;20495;-80
2023/04/09 07:22:26;;;;;;;18.47;17.07;;;11.40;99.90;;;;;;5086974;28;20461;-81
2023/04/09 07:24:55;;;;;;;18.37;17.13;;;11.60;99.90;;;;;;5086691;28;20995;-79
2023/04/09 07:27:25;;;;;;;18.63;17.33;;;11.80;99.90;;;;;;5082715;28;20454;-79
2023/04/09 07:29:55;;;;;;;18.10;16.90;;;12.10;99.90;;;;;;5080269;28;21283;-81
2023/04/09 07:32:24;;;;;;;18.23;16.97;;;12.20;99.90;;;;;;5079784;28;20447;-79
2023/04/09 07:34:53;;;;;;;17.03;16.00;;;12.20;99.90;;;;;;5083225;28;20474;-82
2023/04/09 07:37:22;;;;;;;17.93;16.77;;;12.30;99.90;;;;;;5083253;28;20487;-81
2023/04/09 07:39:51;;;;;;;15.73;14.73;;;12.40;99.90;;;;;;5074568;28;20533;-84
2023/04/09 07:42:19;;;;;;;14.87;14.00;;;12.30;99.90;;;;;;5079030;28;20528;-81
2023/04/09 07:44:47;;;;;;;15.03;14.13;;;12.50;99.90;;;;;;5084214;28;20494;-82
2023/04/09 07:47:16;;;;;;;13.80;13.00;;;12.50;99.90;;;;;;5083626;28;20560;-85
2023/04/09 07:49:44;;;;;;;13.87;13.07;;;12.30;99.90;;;;;;5085528;28;21180;-79
2023/04/09 07:52:12;;;;;;;14.77;13.87;;;12.40;99.90;;;;;;5089692;28;20454;-81
2023/04/09 07:54:42;;;;;;;13.27;12.47;;;12.50;99.90;;;;;;5088361;28;20485;-80
2023/04/09 07:57:10;;;;;;;13.77;12.77;;;12.40;99.90;;;;;;5087104;28;20466;-80
2023/04/09 07:59:38;;;;;;;14.13;13.33;;;12.60;99.90;;;;;;5085526;28;20800;-79
2023/04/09 08:02:07;;;;;;;13.53;12.73;;;12.60;99.90;;;;;;5093755;28;20464;-84
2023/04/09 08:04:36;;;;;;;11.67;11.07;;;12.40;99.90;;;;;;5091008;28;20482;-82
2023/04/09 08:07:04;;;;;;;11.30;10.70;;;12.40;99.90;;;;;;5089215;28;20517;-83
2023/04/09 08:09:34;;;;;;;10.60;10.13;;;12.30;99.90;;;;;;5089149;28;20451;-80
2023/04/09 08:12:04;;;;;;;10.40;9.80;;;12.30;99.90;;;;;;5091907;28;20446;-80
2023/04/09 08:14:32;;;;;;;9.30;8.70;;;12.40;99.90;;;;;;5088017;28;20465;-79
2023/04/09 08:17:01;;;;;;;9.83;9.23;;;12.40;99.90;;;;;;5087544;28;20532;-80
2023/04/09 08:19:29;;;;;;;9.33;8.73;;;12.20;99.90;;;;;;5085492;28;21028;-80
2023/04/09 08:21:57;;;;;;;9.77;9.17;;;11.90;99.90;;;;;;5087468;28;20469;-80
2023/04/09 08:24:26;;;;;;;10.30;9.50;;;12.10;99.90;;;;;;5087226;28;20481;-80
2023/04/09 08:26:55;;;;;;;9.93;9.43;;;12.20;99.90;;;;;;5085181;28;20446;-82
2023/04/09 08:29:25;;;;;;;9.37;8.67;;;12.20;99.90;;;;;;5084817;28;20442;-81
2023/04/09 08:31:53;;;;;;;8.97;8.50;;;12.20;99.90;;;;;;5080799;28;20456;-82
2023/04/09 08:34:21;;;;;;;8.50;8.00;;;12.20;99.90;;;;;;5083354;28;20471;-81
2023/04/09 08:36:49;;;;;;;9.70;9.20;;;12.20;99.90;;;;;;5082007;28;20885;-80
2023/04/09 08:39:19;;;;;;;10.07;9.37;;;12.20;99.90;;;;;;5083271;28;20446;-80
2023/04/09 08:41:48;;;;;;;8.97;8.53;;;12.40;99.90;;;;;;5091038;28;20828;-80
2023/04/09 08:44:27;;;;;;;8.23;7.90;;;12.30;99.90;;;;;;5091068;28;20915;-79
2023/04/09 08:46:56;;;;;;;7.80;7.40;;;12.20;99.90;;;;;;5086757;28;20541;-83
2023/04/09 08:49:28;;;;;;;7.37;7.00;;;12.30;99.90;;;;;;5086043;28;20468;-79
2023/04/09 08:51:57;;;;;;;7.87;7.57;;;12.60;99.90;;;;;;5089732;28;20459;-82
2023/04/09 08:54:27;;;;;;;9.07;8.53;;;12.80;99.90;;;;;;5088238;28;20474;-84
2023/04/09 08:56:56;;;;;;;9.50;8.80;;;13.00;99.90;;;;;;5087542;28;20454;-80
2023/04/09 08:59:29;;;;;;;8.13;7.70;;;12.90;99.90;;;;;;5079780;28;20461;-82
2023/04/09 09:02:09;;;;;;;8.23;7.73;;;12.70;99.90;;;;;;5085775;28;20493;-82
2023/04/09 09:04:52;;;;;;;9.80;9.10;;;12.60;99.90;;;;;;5087223;28;20478;-81
2023/04/09 09:07:20;;;;;;;7.87;7.40;;;12.00;99.20;;;;;;5087037;28;20436;-79
2023/04/09 09:09:53;;;;;;;8.10;7.70;;;11.90;99.90;;;;;;5085762;28;20859;-82
2023/04/09 09:12:35;;;;;;;8.80;8.20;;;12.10;99.90;;;;;;5086198;28;20832;-81
2023/04/09 09:15:06;;;;;;;8.30;7.90;;;12.30;99.90;;;;;;5089046;28;20726;-81
2023/04/09 09:17:52;;;;;;;8.60;8.10;;;12.30;99.90;;;;;;5084850;28;20527;-80
2023/04/09 09:20:22;;;;;;;9.10;8.53;;;12.30;98.00;;;;;;5087632;28;20491;-81
2023/04/09 09:22:52;;;;;;;8.80;8.30;;;12.30;98.20;;;;;;5086233;28;20452;-80
2023/04/09 09:25:24;;;;;;;8.93;8.40;;;12.50;99.90;;;;;;5088550;28;20487;-82
2023/04/09 09:27:53;;;;;;;9.23;8.63;;;12.60;99.90;;;;;;5084463;28;21013;-82
2023/04/09 09:30:25;;;;;;;9.27;8.77;;;12.90;99.90;;;;;;5086240;28;20520;-82
2023/04/09 09:32:54;;;;;;;9.10;8.60;;;13.20;99.90;;;;;;5082601;28;20458;-82
2023/04/09 09:35:22;;;;;;;9.13;8.63;;;13.30;99.90;;;;;;5077373;28;20829;-81
2023/04/09 09:38:03;;;;;;;9.80;9.20;;;13.50;99.90;;;;;;5086811;28;20971;-82
2023/04/09 09:40:31;;;;;;;10.50;9.80;;;13.40;99.90;;;;;;5087663;28;20457;-82
2023/04/09 09:42:59;;;;;;;9.00;8.57;;;13.20;99.90;;;;;;5087609;28;20463;-81
2023/04/09 09:45:30;;;;;;;9.10;8.50;;;13.20;99.90;;;;;;5084163;28;20470;-82
2023/04/09 09:47:58;;;;;;;9.13;8.67;;;13.30;99.90;;;;;;5089481;28;20464;-80
2023/04/09 09:50:30;;;;;;;9.23;8.73;;;13.40;99.90;;;;;;5087549;28;20447;-82
2023/04/09 09:53:03;;;;;;;9.50;8.80;;;13.60;99.90;;;;;;5086097;28;20532;-82
2023/04/09 09:55:32;;;;;;;9.13;8.63;;;13.40;99.90;;;;;;5088391;28;20450;-81
2023/04/09 09:58:03;;;;;;;10.60;9.90;;;13.30;99.90;;;;;;5087231;28;20451;-82
2023/04/09 10:00:35;;;;;;;9.30;8.80;;;13.30;99.90;;;;;;5080940;28;20460;-82
2023/04/09 10:03:14;;;;;;;10.87;10.17;;;13.20;99.90;;;;;;5086664;28;20510;-82
2023/04/09 10:05:42;;;;;;;10.33;9.73;;;13.10;99.90;;;;;;5090754;28;20504;-82
2023/04/09 10:08:12;;;;;;;11.20;10.50;;;13.10;99.90;;;;;;5087399;28;21070;-82
2023/04/09 10:10:42;;;;;;;10.10;9.50;;;12.70;99.50;;;;;;5087837;28;20464;-82
2023/04/09 10:13:20;;;;;;;9.73;9.13;;;12.60;99.60;;;;;;5086384;28;20866;-82
2023/04/09 10:15:50;;;;;;;11.20;10.50;;;12.60;99.90;;;;;;5089557;28;20483;-83
2023/04/09 10:18:20;;;;;;;10.53;9.93;;;12.60;99.90;;;;;;5085778;28;20499;-80
2023/04/09 10:20:54;;;;;;;11.10;10.40;;;12.70;99.90;;;;;;5083025;28;20519;-81
2023/04/09 10:23:32;;;;;;;9.50;8.90;;;12.70;99.90;;;;;;5084756;28;21135;-82
2023/04/09 10:26:01;;;;;;;10.40;9.70;;;12.80;99.90;;;;;;5084688;28;20469;-81
2023/04/09 10:28:31;;;;;;;9.93;9.40;;;12.90;99.90;;;;;;5098193;28;20442;-80
2023/04/09 10:31:01;;;;;;;9.47;8.90;;;13.00;98.10;;;;;;5101749;28;20439;-85
2023/04/09 10:33:29;;;;;;;9.50;9.00;;;13.20;99.90;;;;;;5102631;28;20474;-83
2023/04/09 10:36:01;;;;;;;9.47;8.87;;;13.30;99.90;;;;;;5097683;28;20533;-81
2023/04/09 10:38:37;;;;;;;10.23;9.53;;;13.00;99.90;;;;;;5064603;28;20455;-81
2023/04/09 10:41:15;;;;;;;10.13;9.43;;;12.80;97.40;;;;;;5094615;28;20450;-81
2023/04/09 10:43:46;;;;;;;9.43;8.83;;;12.50;97.10;;;;;;5091898;28;20462;-80
2023/04/09 10:46:30;;;;;;;8.80;8.30;;;12.20;92.30;;;;;;5091384;28;20534;-83
2023/04/09 10:49:10;;;;;;;10.20;8.80;;;12.10;91.50;;;;;;5089357;28;20457;-82
2023/04/09 10:51:39;;;;;;;8.60;8.10;;;12.20;95.90;;;;;;5087260;28;20445;-81
2023/04/09 10:54:44;;;;;;;9.30;8.70;;;12.10;96.70;;;;;;5088386;28;20555;-82
2023/04/09 10:57:18;;;;;;;9.03;8.53;;;12.40;97.10;;;;;;5085955;28;20443;-81
2023/04/09 10:59:47;;;;;;;9.63;9.03;;;12.70;99.90;;;;;;5083648;28;20462;-82
2023/04/09 11:03:01;;;;;;;9.43;8.93;;;12.80;99.40;;;;;;5088138;28;20800;-81
2023/04/09 11:05:33;;;;;;;9.90;9.30;;;12.70;97.50;;;;;;5066926;28;20957;-84
2023/04/09 11:08:07;;;;;;;9.80;9.20;;;12.60;97.10;;;;;;5086099;28;20442;-81
2023/04/09 11:10:36;;;;;;;8.77;8.27;;;12.70;97.40;;;;;;5086671;28;20442;-83
2023/04/09 11:13:05;;;;;;;7.60;7.20;;;12.70;95.00;;;;;;5086657;28;20474;-83
2023/04/09 11:15:35;;;;;;;8.80;8.30;;;12.60;93.40;;;;;;5088223;28;20510;-84
2023/04/09 11:18:08;;;;;;;8.63;8.13;;;12.80;95.20;;;;;;5084725;28;20460;-80
2023/04/09 11:20:36;;;;;;;7.90;7.40;;;13.00;97.40;;;;;;5087315;28;20458;-81
2023/04/09 11:23:05;;;;;;;7.60;7.20;;;13.00;94.70;;;;;;5086187;28;20466;-81
2023/04/09 11:25:34;;;;;;;7.17;6.77;;;13.10;94.60;;;;;;5088903;28;20442;-81
2023/04/09 11:28:05;;;;;;;6.80;6.40;;;13.20;92.80;;;;;;5094197;28;20447;-83
2023/04/09 11:30:34;;;;;;;6.43;6.03;;;13.20;75.50;;;;;;5088528;28;20958;-81
2023/04/09 11:33:03;;;;;;;6.73;6.33;;;13.10;71.20;;;;;;5090837;28;20523;-83
2023/04/09 11:35:35;;;;;;;6.60;6.30;;;13.20;79.30;;;;;;5091449;28;21167;-80
2023/04/09 11:38:06;;;;;;;7.43;7.00;;;13.50;90.50;;;;;;5089050;28;20447;-81
2023/04/09 11:40:35;;;;;;;6.97;6.63;;;13.60;91.90;;;;;;5091948;28;20496;-84
2023/04/09 11:43:03;;;;;;;6.50;6.20;;;13.90;93.70;;;;;;5089192;28;20477;-83
2023/04/09 11:45:32;;;;;;;6.10;5.80;;;13.40;71.40;;;;;;5090441;28;20444;-82
2023/04/09 11:48:01;;;;;;;6.80;6.40;;;13.20;61.80;;;;;;5087019;28;20476;-83
2023/04/09 11:50:32;;;;;;;5.87;5.57;;;13.00;59.70;;;;;;5087994;28;20455;-80
2023/04/09 11:53:00;;;;;;;6.10;5.80;;;13.00;57.70;;;;;;5085048;28;20478;-80
2023/04/09 11:55:30;;;;;;;6.70;6.40;;;12.90;54.80;;;;;;5088621;28;20445;-83
2023/04/09 11:58:01;;;;;;;7.10;6.60;;;13.00;58.20;;;;;;5087555;28;20509;-82
2023/04/09 12:00:29;;;;;;;6.40;6.10;;;12.90;55.10;;;;;;5078071;28;20457;-76
2023/04/09 12:03:02;;;;;;;6.60;6.20;;;12.90;58.00;;;;;;5086655;28;20497;-79
2023/04/09 12:05:33;;;;;;;7.00;6.57;;;12.80;56.80;;;;;;5088141;28;20457;-82
2023/04/09 12:08:04;;;;;;;6.93;6.53;;;12.90;58.30;;;;;;5087486;28;20473;-81
2023/04/09 12:10:35;;;;;;;7.53;7.03;;;12.90;58.80;;;;;;5086315;28;20463;-81
2023/04/09 12:13:06;;;;;;;6.83;6.43;;;13.10;59.00;;;;;;5088626;28;20475;-84
2023/04/09 12:15:36;;;;;;;7.60;7.10;;;13.30;62.40;;;;;;5085782;28;20449;-81
2023/04/09 12:18:08;;;;;;;7.17;6.67;;;13.20;57.90;;;;;;5084667;28;20857;-81
2023/04/09 12:20:39;;;;;;;7.10;6.70;;;13.30;63.60;;;;;;5085458;28;20479;-84
2023/04/09 12:23:08;;;;;;;7.30;6.90;;;13.30;61.10;;;;;;5087474;28;20485;-81
2023/04/09 12:25:38;;;;;;;7.20;6.80;;;13.60;69.10;;;;;;5087963;28;20448;-80
2023/04/09 12:28:08;;;;;;;7.07;6.67;;;13.40;62.70;;;;;;5087342;28;21110;-81
2023/04/09 12:30:36;;;;;;;7.33;6.83;;;13.00;56.70;;;;;;5085182;28;20450;-82
2023/04/09 12:33:04;;;;;;;6.73;6.33;;;13.00;55.70;;;;;;5089413;28;20550;-78
2023/04/09 12:35:37;;;;;;;6.70;6.30;;;12.90;57.10;;;;;;5086980;28;20461;-82
2023/04/09 12:38:06;;;;;;;7.80;7.20;;;12.80;54.70;;;;;;5090143;28;21247;-82
2023/04/09 12:40:35;;;;;;;8.07;7.47;;;12.80;56.80;;;;;;5089865;28;20451;-81
2023/04/09 12:43:04;;;;;;;7.47;6.97;;;13.00;58.80;;;;;;5074040;28;20472;-82
2023/04/09 12:45:32;;;;;;;7.43;6.97;;;13.00;57.00;;;;;;5086505;28;20470;-82
2023/04/09 12:48:00;;;;;;;6.43;5.93;;;12.90;56.60;;;;;;5085857;28;20474;-82
2023/04/09 12:50:29;;;;;;;6.60;6.20;;;13.30;82.70;;;;;;5087491;28;20458;-82
2023/04/09 12:52:59;;;;;;;6.57;6.27;;;13.30;61.50;;;;;;5085205;28;20492;-82
2023/04/09 12:55:27;;;;;;;7.20;6.80;;;13.40;64.30;;;;;;5088115;28;20529;-81